PAJN/JNU METAR and TAF weather

Enter ICAO airport designator
Station Type Date Time Source
PAJN METAR 2018/12/13 08:53 UTC NOAA

PAJN 130853Z 00000KT 10SM FEW001 BKN038 OVC050 01/00 A2908 RMK AO2 SLP847 60000 T00060000 400280000 51005


Station Type Date Time Source
PAJN Decoded METAR 2018/12/13 08:53 UTC NOAA

JUNEAU INTERNATIONAL AIRPORT, AK, United States (PAJN) 58-21N 134-34W 8M
Dec 13, 2018 - 03:53 AM EST / 2018.12.13 0853 UTC
Wind: Calm:0
Visibility: 10 mile(s):0
Sky conditions: overcast
Temperature: 33.1 F (0.6 C)
Dew Point: 32.0 F (0.0 C)
Relative Humidity: 95%
Pressure (altimeter): 29.08 in. Hg (984 hPa)
Pressure tendency: 0.01 inches (0.5 hPa) higher than three hours ago
ob: PAJN 130853Z 00000KT 10SM FEW001 BKN038 OVC050 01/00 A2908 RMK AO2 SLP847 60000 T00060000 400280000 51005
cycle: 9

Station Type Date Time Source
PAJN TAF 2018/12/13 06:40 UTC NOAA

TAF PAJN 130537Z 1306/1406 VRB03KT 6SM -SHRASN BKN035 OVC045
TEMPO 1306/1309 2SM -SN BR BKN025 OVC035
FM130900 VRB03KT P6SM VCSH SCT025 OVC035
FM131600 00000KT 3SM -SHSN BKN025 OVC035
FM131900 VRB03KT 1/2SM SHSN FG BKN015 OVC025


Example: see airport list